Time;durP1;ratioP1;P1;durP2;ratioP2;P2;SDS_P1;SDS_P2;PMS_P1;PMS_P2;Temp;Humidity;BMP_temperature;BMP_pressure;BME280_temperature;BME280_humidity;BME280_pressure;Samples;Min_cycle;Max_cycle;Signal;HPM_P1;HPM_P2
2023/08/20 00:02:55;;;;;;;23.60;12.50;;;;;;;28.95;50.17;99232.46;67917;1275;1016263;-59
2023/08/20 00:05:58;;;;;;;22.60;11.30;;;;;;;28.92;50.04;99230.00;67926;1275;1016069;-60
2023/08/20 00:09:01;;;;;;;25.70;13.50;;;;;;;28.80;50.65;99225.67;67896;1275;1016082;-60
2023/08/20 00:12:05;;;;;;;19.70;8.70;;;;;;;28.71;51.06;99227.92;67932;1275;1016425;-60
2023/08/20 00:15:07;;;;;;;23.90;12.80;;;;;;;28.64;51.08;99227.20;67925;1275;1016435;-60
2023/08/20 00:18:10;;;;;;;24.50;12.60;;;;;;;28.64;51.43;99223.02;67947;1275;1017387;-60
2023/08/20 00:21:12;;;;;;;22.30;11.90;;;;;;;28.86;50.97;99221.18;67898;1275;1016500;-59
2023/08/20 00:24:15;;;;;;;23.80;11.70;;;;;;;28.75;51.23;99221.10;67911;1275;1017924;-59
2023/08/20 00:27:18;;;;;;;22.10;10.10;;;;;;;28.75;50.93;99215.70;67954;1275;1015768;-60
2023/08/20 00:30:20;;;;;;;21.90;11.30;;;;;;;28.80;50.47;99215.39;67934;1275;1016488;-60
2023/08/20 00:33:22;;;;;;;23.00;12.10;;;;;;;28.80;50.39;99207.79;67932;1275;1020046;-61
2023/08/20 00:36:25;;;;;;;25.40;12.60;;;;;;;28.86;50.37;99205.61;67889;1275;1016328;-60
2023/08/20 00:39:27;;;;;;;25.10;12.60;;;;;;;28.81;50.36;99200.45;67917;1275;1016698;-61
2023/08/20 00:42:30;;;;;;;22.90;12.00;;;;;;;28.65;50.74;99199.88;67937;1275;1016322;-61
2023/08/20 00:45:33;;;;;;;23.30;11.40;;;;;;;28.71;50.58;99198.58;67896;1275;1016394;-60
2023/08/20 00:48:35;;;;;;;23.00;10.90;;;;;;;28.63;50.82;99195.83;67902;1275;1016168;-59
2023/08/20 00:51:37;;;;;;;20.00;7.10;;;;;;;28.69;50.55;99193.10;67927;1275;1017075;-60
2023/08/20 00:54:40;;;;;;;19.00;6.20;;;;;;;28.62;49.87;99194.10;67941;1275;1016365;-60
2023/08/20 00:57:42;;;;;;;23.70;7.70;;;;;;;28.51;49.65;99195.37;67973;1275;1015793;-60
2023/08/20 01:00:45;;;;;;;18.80;8.10;;;;;;;28.45;50.18;99202.82;67898;1275;1018611;-60
2023/08/20 01:03:47;;;;;;;25.30;12.20;;;;;;;28.54;50.22;99203.59;67924;1275;1016469;-60
2023/08/20 01:06:50;;;;;;;22.90;11.70;;;;;;;28.40;50.70;99201.71;67942;1275;1017438;-59
2023/08/20 01:09:52;;;;;;;22.60;11.50;;;;;;;28.47;50.54;99202.73;67969;1275;1016463;-60
2023/08/20 01:12:55;;;;;;;23.10;11.80;;;;;;;28.45;50.38;99208.04;67930;1275;1019157;-61
2023/08/20 01:15:57;;;;;;;24.50;11.10;;;;;;;28.48;50.39;99206.23;67882;1275;1015927;-60
2023/08/20 01:18:59;;;;;;;19.50;8.80;;;;;;;28.51;50.19;99207.08;67867;1275;1015879;-60
2023/08/20 01:22:02;;;;;;;25.60;8.00;;;;;;;28.44;49.86;99203.63;67944;1275;1016508;-60
2023/08/20 01:25:04;;;;;;;22.80;8.90;;;;;;;28.17;50.14;99209.27;67953;1275;1016484;-60
2023/08/20 01:28:07;;;;;;;35.40;8.40;;;;;;;28.10;49.91;99210.42;67942;1275;1016906;-59
2023/08/20 01:31:09;;;;;;;25.00;7.30;;;;;;;28.00;50.16;99213.59;67911;1275;1016496;-60
2023/08/20 01:34:13;;;;;;;21.80;8.30;;;;;;;27.96;50.15;99214.34;67903;1253;1016537;-61
2023/08/20 01:37:15;;;;;;;24.00;7.70;;;;;;;27.81;50.45;99216.71;67915;1275;1016310;-60
2023/08/20 01:40:17;;;;;;;19.70;8.70;;;;;;;27.84;50.61;99216.57;67910;1275;1016313;-59
2023/08/20 01:43:20;;;;;;;24.30;10.40;;;;;;;27.96;50.61;99214.37;67908;1275;1016109;-60
2023/08/20 01:46:22;;;;;;;22.70;11.50;;;;;;;28.05;50.69;99208.10;67935;1275;1016697;-60
2023/08/20 01:49:25;;;;;;;24.70;12.30;;;;;;;28.19;50.27;99206.30;67936;1275;1016286;-59
2023/08/20 01:52:27;;;;;;;24.90;12.50;;;;;;;28.16;50.35;99207.96;67972;1275;1015678;-60
2023/08/20 01:55:30;;;;;;;24.70;12.30;;;;;;;27.94;50.83;99214.70;67893;1275;1016415;-58
2023/08/20 01:58:32;;;;;;;24.00;12.40;;;;;;;27.96;50.78;99215.87;67896;1275;1016481;-60
2023/08/20 02:01:35;;;;;;;23.90;12.20;;;;;;;28.06;50.67;99216.16;67936;1275;1016283;-60
2023/08/20 02:04:37;;;;;;;23.30;11.80;;;;;;;28.36;49.69;99215.59;67969;1275;1016320;-60
2023/08/20 02:07:40;;;;;;;24.80;11.90;;;;;;;28.48;49.21;99215.31;67912;1275;1016515;-59
2023/08/20 02:10:42;;;;;;;25.40;12.20;;;;;;;28.39;49.37;99212.29;67850;1275;1016369;-60
2023/08/20 02:13:45;;;;;;;13.30;5.20;;;;;;;28.50;49.42;99212.10;67957;1275;1019408;-60
2023/08/20 02:16:47;;;;;;;23.50;10.70;;;;;;;28.47;49.41;99212.53;67966;1275;1016465;-59
2023/08/20 02:19:50;;;;;;;20.40;9.80;;;;;;;28.32;49.46;99216.94;67927;1275;1016442;-60
2023/08/20 02:22:52;;;;;;;19.30;8.80;;;;;;;28.13;49.71;99217.20;67866;1275;1016197;-60
2023/08/20 02:25:55;;;;;;;17.70;6.90;;;;;;;27.88;50.18;99216.80;67912;1275;1016107;-59
2023/08/20 02:28:57;;;;;;;39.60;6.80;;;;;;;27.78;49.99;99216.77;67959;1275;1016042;-60
2023/08/20 02:31:59;;;;;;;26.90;4.40;;;;;;;27.70;50.21;99214.95;67953;1275;1016249;-60
2023/08/20 02:35:05;;;;;;;16.00;4.50;;;;;;;27.64;50.15;99217.86;67905;1275;1016237;-60
2023/08/20 02:38:09;;;;;;;10.60;4.00;;;;;;;27.60;50.08;99215.30;67947;1274;1016504;-59
2023/08/20 02:41:12;;;;;;;17.00;6.90;;;;;;;27.61;50.14;99213.16;67962;1275;1019864;-60
2023/08/20 02:44:14;;;;;;;20.00;8.20;;;;;;;27.66;50.01;99216.14;67933;1275;1016475;-59
2023/08/20 02:47:17;;;;;;;21.30;9.90;;;;;;;27.68;49.99;99211.79;67902;1275;1016677;-60
2023/08/20 02:50:19;;;;;;;20.20;8.90;;;;;;;27.59;50.23;99214.01;67936;1275;1015717;-60
2023/08/20 02:53:22;;;;;;;22.90;10.70;;;;;;;27.52;50.37;99215.06;67921;1275;1019794;-60
2023/08/20 02:56:24;;;;;;;21.50;10.10;;;;;;;27.43;50.59;99216.94;67959;1275;1016268;-60
2023/08/20 02:59:27;;;;;;;22.10;10.20;;;;;;;27.39;50.71;99214.63;67955;1275;1016427;-59
2023/08/20 03:02:30;;;;;;;22.10;10.60;;;;;;;27.32;50.62;99215.70;67922;1275;1016256;-60
2023/08/20 03:05:32;;;;;;;25.90;12.00;;;;;;;27.26;50.86;99214.77;67941;1275;1016443;-60
2023/08/20 03:08:35;;;;;;;21.30;9.80;;;;;;;27.19;51.15;99220.33;67897;1275;1016440;-60
2023/08/20 03:11:37;;;;;;;25.50;12.30;;;;;;;27.08;51.14;99222.45;67879;1275;1016430;-59
2023/08/20 03:14:39;;;;;;;23.30;11.70;;;;;;;27.21;50.81;99227.52;67925;1275;1016394;-60
2023/08/20 03:17:42;;;;;;;23.70;11.30;;;;;;;27.18;50.89;99224.29;67936;1275;1016478;-60
2023/08/20 03:20:44;;;;;;;24.10;11.50;;;;;;;27.12;50.93;99228.24;67969;1275;1016049;-60
2023/08/20 03:23:47;;;;;;;26.90;12.10;;;;;;;27.07;51.17;99229.27;67940;1275;1016405;-60
2023/08/20 03:26:49;;;;;;;25.00;11.90;;;;;;;27.10;51.10;99226.86;67923;1275;1016052;-60
2023/08/20 03:29:51;;;;;;;22.60;11.40;;;;;;;27.13;50.97;99228.60;67914;1275;1016234;-60
2023/08/20 03:32:54;;;;;;;24.90;10.80;;;;;;;27.11;50.87;99230.76;67986;1275;1017999;-60
2023/08/20 03:35:56;;;;;;;25.70;12.10;;;;;;;27.13;50.93;99233.12;67965;1275;1016476;-60
2023/08/20 03:38:59;;;;;;;23.90;11.10;;;;;;;27.14;51.14;99231.51;67888;1275;1015801;-59
2023/08/20 03:42:01;;;;;;;19.60;6.60;;;;;;;27.20;50.80;99235.55;67909;1275;1016694;-60
2023/08/20 03:45:04;;;;;;;21.40;9.10;;;;;;;27.23;50.48;99233.55;67961;1275;1016246;-60
2023/08/20 03:48:07;;;;;;;22.50;10.40;;;;;;;27.13;50.82;99233.82;67908;1275;1015796;-60
2023/08/20 03:51:09;;;;;;;23.60;11.00;;;;;;;27.09;51.15;99234.17;67912;1275;1016199;-60
2023/08/20 03:54:11;;;;;;;24.60;12.30;;;;;;;27.03;51.48;99233.33;67937;1275;1016238;-61
2023/08/20 03:57:14;;;;;;;22.60;11.30;;;;;;;27.04;51.50;99233.04;67957;1275;1016509;-60
2023/08/20 04:00:17;;;;;;;23.80;11.60;;;;;;;27.12;51.19;99232.27;67922;1275;1016452;-61
2023/08/20 04:03:20;;;;;;;23.40;11.60;;;;;;;27.18;51.13;99231.46;67905;1275;1016113;-58
2023/08/20 04:06:22;;;;;;;20.50;9.10;;;;;;;27.26;51.11;99235.11;67957;1275;1016144;-60
2023/08/20 04:09:25;;;;;;;19.80;8.60;;;;;;;27.29;51.10;99235.14;67921;1275;1015865;-60
2023/08/20 04:12:27;;;;;;;22.40;9.50;;;;;;;27.35;51.00;99238.02;67837;1275;1016427;-60
2023/08/20 04:15:29;;;;;;;21.20;10.20;;;;;;;27.41;50.97;99238.10;67937;1275;1016404;-60
2023/08/20 04:18:32;;;;;;;17.90;7.40;;;;;;;27.60;50.59;99238.39;67947;1275;1016360;-60
2023/08/20 04:21:34;;;;;;;21.90;8.70;;;;;;;27.79;49.96;99238.75;67967;1275;1016705;-61
2023/08/20 04:24:37;;;;;;;23.30;11.20;;;;;;;27.87;50.04;99235.58;67895;1275;1016477;-60
2023/08/20 04:27:39;;;;;;;21.50;9.90;;;;;;;27.97;50.13;99239.73;67910;1275;1015959;-60
2023/08/20 04:30:42;;;;;;;22.00;9.40;;;;;;;28.12;50.11;99239.56;67948;1275;1018932;-60
2023/08/20 04:33:45;;;;;;;22.10;8.40;;;;;;;28.14;50.48;99244.25;67883;1275;1016049;-60
2023/08/20 04:36:48;;;;;;;21.00;9.20;;;;;;;28.07;50.81;99239.36;67955;1275;1016849;-60
2023/08/20 04:39:50;;;;;;;21.50;9.90;;;;;;;28.08;50.91;99241.36;67943;1275;1016271;-60
2023/08/20 04:42:53;;;;;;;21.50;9.20;;;;;;;28.08;51.19;99241.80;67905;1275;1016637;-60
2023/08/20 04:45:55;;;;;;;23.50;10.20;;;;;;;28.32;50.97;99251.29;67906;1275;1015827;-60
2023/08/20 04:48:58;;;;;;;22.90;10.50;;;;;;;28.61;50.58;99250.20;67926;1275;1016343;-59
2023/08/20 04:52:00;;;;;;;21.80;11.20;;;;;;;28.95;50.49;99248.98;67901;1275;1016542;-60
2023/08/20 04:55:03;;;;;;;26.50;11.70;;;;;;;29.22;50.31;99249.31;67964;1275;1016491;-60
2023/08/20 04:58:05;;;;;;;22.70;11.80;;;;;;;29.19;50.37;99246.98;67920;1275;1016485;-58
2023/08/20 05:01:08;;;;;;;23.80;11.90;;;;;;;29.57;49.93;99243.40;67888;1275;1016432;-60
2023/08/20 05:04:11;;;;;;;23.10;11.90;;;;;;;29.69;50.16;99245.43;67973;1275;1016463;-60
2023/08/20 05:07:14;;;;;;;25.10;12.70;;;;;;;29.87;50.33;99248.72;67906;1275;1016462;-60
2023/08/20 05:10:16;;;;;;;27.50;12.80;;;;;;;30.10;50.18;99252.04;67964;1275;1016240;-61
2023/08/20 05:13:20;;;;;;;23.80;12.90;;;;;;;30.44;50.07;99253.16;67947;1275;1016762;-60
2023/08/20 05:16:22;;;;;;;27.40;13.70;;;;;;;30.70;49.78;99255.20;67941;1275;1016440;-60
2023/08/20 05:19:25;;;;;;;29.80;14.20;;;;;;;30.80;49.78;99255.40;67939;1275;1016877;-60
2023/08/20 05:22:27;;;;;;;25.40;13.40;;;;;;;31.12;49.70;99252.34;67926;1275;1016572;-60
2023/08/20 05:25:30;;;;;;;25.90;13.50;;;;;;;31.34;49.21;99258.63;67909;1275;1016456;-60
2023/08/20 05:28:32;;;;;;;25.50;13.10;;;;;;;31.60;49.20;99259.05;67963;1275;1017680;-58
2023/08/20 05:31:35;;;;;;;28.20;13.90;;;;;;;31.85;48.95;99260.52;67941;1275;1016241;-60
2023/08/20 05:34:37;;;;;;;26.50;15.20;;;;;;;31.94;48.97;99261.36;67911;1275;1016501;-60
2023/08/20 05:37:40;;;;;;;27.80;15.90;;;;;;;32.15;48.77;99261.05;67938;1275;1016039;-59
2023/08/20 05:40:42;;;;;;;27.20;15.90;;;;;;;32.40;48.82;99260.92;67943;1275;1016796;-59
2023/08/20 05:43:44;;;;;;;32.00;18.00;;;;;;;32.84;48.18;99257.55;67944;1275;1016057;-60
2023/08/20 05:46:47;;;;;;;32.40;18.60;;;;;;;33.06;47.64;99264.73;67961;1275;1016364;-60
2023/08/20 05:49:49;;;;;;;31.20;17.80;;;;;;;33.24;47.53;99272.45;67969;1275;1016410;-60
2023/08/20 05:52:52;;;;;;;32.80;17.40;;;;;;;33.37;47.32;99271.92;67898;1275;1016182;-60
2023/08/20 05:55:54;;;;;;;31.80;18.70;;;;;;;33.37;46.87;99274.61;67890;1275;1016188;-60
2023/08/20 05:58:56;;;;;;;32.50;18.70;;;;;;;33.41;47.01;99273.76;67904;1275;1016635;-60
2023/08/20 06:01:59;;;;;;;30.10;17.30;;;;;;;33.54;47.01;99276.95;67971;1275;1016485;-60
2023/08/20 06:05:04;;;;;;;31.70;17.60;;;;;;;33.76;46.62;99281.58;67911;1275;1016502;-61
2023/08/20 06:08:07;;;;;;;31.30;18.00;;;;;;;34.02;46.48;99281.66;67966;1275;1016449;-60
2023/08/20 06:11:10;;;;;;;29.70;17.40;;;;;;;34.17;46.08;99284.95;67923;1275;1016202;-60
2023/08/20 06:14:12;;;;;;;32.30;16.90;;;;;;;34.33;45.47;99289.83;67908;1275;1016795;-60
2023/08/20 06:17:15;;;;;;;31.80;16.90;;;;;;;34.26;45.17;99294.61;67968;1275;1016532;-60
2023/08/20 06:20:18;;;;;;;27.90;16.90;;;;;;;34.03;45.78;99289.30;67942;1275;1016453;-61
2023/08/20 06:23:21;;;;;;;29.90;17.10;;;;;;;34.14;46.06;99292.42;67891;1275;1016411;-59
2023/08/20 06:26:23;;;;;;;29.10;16.00;;;;;;;34.34;45.93;99287.89;67858;1275;1016102;-61
2023/08/20 06:29:25;;;;;;;28.70;15.90;;;;;;;34.49;45.27;99286.27;67979;1275;1016886;-58
2023/08/20 06:32:28;;;;;;;26.60;15.50;;;;;;;34.58;44.57;99284.67;67947;1275;1016510;-61
2023/08/20 06:35:30;;;;;;;27.30;15.00;;;;;;;34.57;44.64;99288.09;67966;1275;1016279;-59
2023/08/20 06:38:33;;;;;;;25.50;14.60;;;;;;;34.49;44.38;99290.79;67914;1275;1016398;-61
2023/08/20 06:41:36;;;;;;;25.40;14.00;;;;;;;34.38;44.57;99290.48;67916;1275;1016430;-61
2023/08/20 06:44:38;;;;;;;24.90;14.20;;;;;;;34.26;44.34;99292.55;67947;1275;1016474;-61
2023/08/20 06:47:41;;;;;;;25.60;13.40;;;;;;;34.45;44.06;99295.81;67952;1275;1017297;-59
2023/08/20 06:50:43;;;;;;;24.50;14.00;;;;;;;34.52;43.85;99298.86;67911;1275;1016500;-60
2023/08/20 06:53:45;;;;;;;27.20;13.50;;;;;;;34.57;43.70;99299.61;67913;1275;1016441;-61
2023/08/20 06:56:48;;;;;;;24.80;13.30;;;;;;;34.54;43.64;99302.10;67893;1275;1016160;-61
2023/08/20 06:59:50;;;;;;;26.20;14.50;;;;;;;34.60;42.97;99302.90;67901;1275;1016325;-61
2023/08/20 07:02:53;;;;;;;26.20;13.20;;;;;;;34.59;43.02;99304.30;67941;1275;1016186;-61
2023/08/20 07:05:55;;;;;;;24.70;13.70;;;;;;;34.71;43.34;99301.98;67902;1275;1016252;-60
2023/08/20 07:08:58;;;;;;;24.10;14.00;;;;;;;34.98;43.38;99305.48;67920;1275;1016598;-60
2023/08/20 07:12:00;;;;;;;23.00;12.60;;;;;;;35.31;42.63;99307.70;67928;1275;1018142;-59
2023/08/20 07:15:03;;;;;;;26.20;13.10;;;;;;;35.53;42.29;99308.16;67952;1275;1016249;-61
2023/08/20 07:18:06;;;;;;;25.40;13.20;;;;;;;35.68;41.39;99306.85;67958;1275;1015841;-60
2023/08/20 07:21:08;;;;;;;23.60;11.80;;;;;;;35.67;41.36;99313.21;67966;1275;1016495;-61
2023/08/20 07:24:11;;;;;;;22.70;11.70;;;;;;;35.71;41.03;99312.63;67965;1275;1016453;-60
2023/08/20 07:27:13;;;;;;;22.80;11.70;;;;;;;35.88;40.80;99310.90;67910;1275;1016232;-61
2023/08/20 07:30:16;;;;;;;23.00;12.50;;;;;;;36.25;40.43;99306.20;67909;1263;1016961;-60
2023/08/20 07:33:18;;;;;;;22.30;11.20;;;;;;;36.42;40.35;99311.48;67951;1275;1016417;-59
2023/08/20 07:36:21;;;;;;;21.10;11.80;;;;;;;36.53;40.32;99314.13;67954;1275;1018253;-59
2023/08/20 07:39:24;;;;;;;23.30;11.80;;;;;;;36.63;39.41;99316.98;67899;1275;1016410;-61
2023/08/20 07:42:26;;;;;;;24.60;11.70;;;;;;;36.78;39.66;99315.16;67994;1275;1017073;-61
2023/08/20 07:45:29;;;;;;;23.70;11.40;;;;;;;36.70;39.59;99316.33;67983;1275;1016346;-60
2023/08/20 07:48:32;;;;;;;23.80;11.50;;;;;;;36.84;39.93;99318.52;67919;1275;1016579;-58
2023/08/20 07:51:34;;;;;;;22.90;11.70;;;;;;;37.04;38.65;99318.73;67886;1275;1016349;-61
2023/08/20 07:54:36;;;;;;;21.00;11.10;;;;;;;37.08;39.02;99313.20;67884;1275;1016013;-59
2023/08/20 07:57:39;;;;;;;24.30;11.20;;;;;;;37.34;39.17;99312.10;67951;1275;1016313;-60
2023/08/20 08:00:42;;;;;;;23.60;10.90;;;;;;;37.64;37.96;99313.05;67905;1275;1016800;-60
2023/08/20 08:07:31;;;;;;;23.20;11.00;;;;;;;37.85;37.83;99314.13;67931;1275;1016476;-61
2023/08/20 08:10:34;;;;;;;21.50;10.50;;;;;;;37.78;37.58;99315.88;67915;1275;1016472;-60
2023/08/20 08:13:37;;;;;;;21.60;11.10;;;;;;;37.90;36.87;99312.63;67937;1275;1016359;-60
2023/08/20 08:16:39;;;;;;;22.80;10.90;;;;;;;37.86;37.71;99308.27;67984;1275;1016356;-60
2023/08/20 08:19:42;;;;;;;22.70;10.80;;;;;;;38.07;37.29;99308.32;67952;1275;1016465;-60
2023/08/20 08:22:44;;;;;;;21.60;11.00;;;;;;;37.93;36.80;99310.77;67899;1275;1016942;-60
2023/08/20 08:25:46;;;;;;;22.40;10.30;;;;;;;37.58;37.62;99310.93;67935;1275;1016304;-60
2023/08/20 08:28:49;;;;;;;21.80;11.40;;;;;;;38.11;37.39;99316.52;67913;1275;1016020;-60
2023/08/20 08:31:52;;;;;;;21.60;10.70;;;;;;;38.46;36.72;99313.94;67931;1275;1018163;-61
2023/08/20 08:34:54;;;;;;;23.40;10.60;;;;;;;38.54;36.78;99314.77;67898;1275;1016440;-61
2023/08/20 08:37:57;;;;;;;22.10;10.20;;;;;;;38.39;36.58;99315.51;67888;1275;1016847;-61
2023/08/20 08:41:00;;;;;;;20.80;10.60;;;;;;;38.42;36.68;99318.10;67927;1275;1016181;-60
2023/08/20 08:44:03;;;;;;;20.30;9.30;;;;;;;38.75;36.27;99318.61;67892;1275;1016441;-59
2023/08/20 08:47:05;;;;;;;21.40;9.50;;;;;;;38.72;35.53;99321.95;67962;1275;1016490;-61
2023/08/20 08:50:08;;;;;;;21.90;9.40;;;;;;;38.33;35.82;99325.27;67933;1275;1016477;-59
2023/08/20 08:53:10;;;;;;;21.90;9.60;;;;;;;38.06;35.22;99322.98;67940;1275;1016241;-61
2023/08/20 08:56:13;;;;;;;21.50;9.50;;;;;;;37.76;36.02;99323.67;67906;1275;1017603;-61
2023/08/20 08:59:15;;;;;;;20.20;9.60;;;;;;;38.11;35.53;99322.77;67921;1275;1016319;-60
2023/08/20 09:02:17;;;;;;;23.10;9.60;;;;;;;38.24;36.01;99322.75;67962;1275;1016959;-60
2023/08/20 09:05:20;;;;;;;20.20;9.40;;;;;;;38.30;35.49;99322.73;67927;1275;1018516;-57
2023/08/20 09:08:22;;;;;;;20.20;9.20;;;;;;;38.44;35.56;99322.82;67973;1275;1016495;-59
2023/08/20 09:14:42;;;;;;;20.60;9.50;;;;;;;38.73;34.12;99325.88;67940;1275;1016466;-59
2023/08/20 09:17:45;;;;;;;22.70;8.90;;;;;;;38.95;34.07;99332.83;67929;1275;1016186;-59
2023/08/20 09:20:48;;;;;;;19.70;9.10;;;;;;;39.22;34.06;99330.69;67945;1275;1016471;-60
2023/08/20 09:23:50;;;;;;;23.10;9.60;;;;;;;39.43;33.20;99330.58;67940;1275;1016455;-60
2023/08/20 09:26:53;;;;;;;20.20;9.60;;;;;;;39.50;33.61;99326.69;67958;1275;1016230;-59
2023/08/20 09:29:55;;;;;;;21.90;10.30;;;;;;;39.71;32.72;99326.77;67922;1255;1016159;-60
2023/08/20 09:32:58;;;;;;;20.50;9.40;;;;;;;39.85;33.45;99325.86;67868;1275;1015864;-60
2023/08/20 09:36:00;;;;;;;21.60;9.60;;;;;;;40.01;32.49;99333.30;67960;1275;1016427;-60
2023/08/20 09:39:03;;;;;;;19.80;8.70;;;;;;;40.11;32.54;99324.02;67927;1275;1016112;-60
2023/08/20 09:42:06;;;;;;;21.00;9.50;;;;;;;40.57;33.10;99325.04;67799;1275;1016446;-60
2023/08/20 09:45:23;;;;;;;21.00;9.20;;;;;;;40.65;32.83;99325.23;67951;1275;1016473;-60
2023/08/20 09:48:25;;;;;;;20.50;9.00;;;;;;;40.67;31.33;99324.84;67894;1275;1016780;-59
2023/08/20 09:51:32;;;;;;;20.10;8.80;;;;;;;40.55;31.36;99325.92;67878;1275;1016756;-59
2023/08/20 09:54:34;;;;;;;18.80;8.80;;;;;;;39.80;31.97;99323.00;67943;1275;1016443;-60
2023/08/20 09:57:37;;;;;;;21.00;9.20;;;;;;;39.80;32.00;99320.52;67927;1275;1016627;-56
2023/08/20 10:00:39;;;;;;;20.70;9.30;;;;;;;40.28;31.76;99316.75;67724;1275;1247383;-60
2023/08/20 10:10:16;;;;;;;20.20;9.50;;;;;;;41.59;31.16;99307.78;67968;1275;1016278;-57
2023/08/20 10:13:19;;;;;;;21.60;9.30;;;;;;;41.74;31.23;99310.70;67980;1275;1015969;-59
2023/08/20 10:16:24;;;;;;;19.30;9.30;;;;;;;41.87;30.54;99307.70;67946;1275;1015405;-59
2023/08/20 10:19:26;;;;;;;20.80;9.80;;;;;;;42.75;29.71;99298.77;67975;1275;1007760;-57
2023/08/20 10:22:29;;;;;;;21.50;10.00;;;;;;;42.90;29.02;99299.52;67987;1275;1007248;-60
2023/08/20 10:25:31;;;;;;;21.40;9.70;;;;;;;42.67;28.68;99305.09;67933;1275;1009815;-59
2023/08/20 10:28:34;;;;;;;19.20;8.90;;;;;;;42.38;29.04;99299.77;67903;1275;1007437;-60
2023/08/20 10:31:37;;;;;;;20.80;10.00;;;;;;;42.29;29.89;99300.23;67951;1275;1007666;-60
2023/08/20 10:34:40;;;;;;;22.40;10.50;;;;;;;42.34;29.87;99299.98;67987;1275;1015607;-60
2023/08/20 10:37:43;;;;;;;21.30;9.90;;;;;;;42.48;29.53;99297.55;67984;1275;1007675;-56
2023/08/20 10:40:47;;;;;;;21.20;9.80;;;;;;;42.70;29.10;99297.57;67984;1275;1007810;-60
2023/08/20 10:43:49;;;;;;;19.90;9.20;;;;;;;42.80;28.78;99296.84;67941;1275;1008990;-59
2023/08/20 10:46:52;;;;;;;20.70;9.60;;;;;;;42.78;28.26;99294.73;67911;1275;1008003;-59
2023/08/20 10:49:55;;;;;;;19.90;9.50;;;;;;;42.56;27.97;99288.84;67917;1275;1009445;-60
2023/08/20 10:52:58;;;;;;;22.90;10.10;;;;;;;42.45;28.32;99291.02;67888;1275;1008001;-60
2023/08/20 10:56:00;;;;;;;22.30;9.70;;;;;;;42.39;28.41;99290.65;67984;1275;1007721;-59
2023/08/20 10:59:03;;;;;;;20.90;10.30;;;;;;;42.31;28.61;99286.99;67964;1275;1016515;-57
2023/08/20 11:02:05;;;;;;;20.20;9.60;;;;;;;42.71;28.47;99284.16;67910;1275;1007653;-59
2023/08/20 11:05:08;;;;;;;20.90;10.00;;;;;;;42.80;27.58;99282.42;67911;1275;1016413;-59
2023/08/20 11:08:11;;;;;;;21.00;9.90;;;;;;;43.03;28.58;99279.34;67960;1275;1007789;-59
2023/08/20 11:11:16;;;;;;;19.90;10.00;;;;;;;43.43;28.09;99281.11;67967;1275;1007801;-57
2023/08/20 11:21:08;;;;;;;18.80;9.10;;;;;;;42.35;27.19;99285.84;67833;1275;1007395;-59
2023/08/20 11:24:13;;;;;;;19.40;9.40;;;;;;;42.20;28.06;99282.05;67966;1274;1007724;-60
2023/08/20 11:27:23;;;;;;;19.20;9.00;;;;;;;42.44;27.41;99277.75;67991;1275;1007852;-60
2023/08/20 11:30:31;;;;;;;20.70;8.70;;;;;;;42.56;27.16;99279.82;67972;1275;1007685;-59
2023/08/20 11:33:33;;;;;;;19.80;9.30;;;;;;;42.29;27.45;99279.08;67947;1275;1008239;-60
2023/08/20 11:36:36;;;;;;;18.40;8.30;;;;;;;42.33;27.03;99279.52;67943;1275;1007888;-59
2023/08/20 11:39:39;;;;;;;17.80;8.10;;;;;;;42.18;27.04;99279.41;67949;1275;1008236;-59
2023/08/20 11:42:41;;;;;;;18.10;7.30;;;;;;;42.11;27.36;99280.47;67974;1275;1007562;-57
2023/08/20 11:45:44;;;;;;;17.90;7.50;;;;;;;41.66;27.28;99282.85;67921;1275;1016259;-57
2023/08/20 11:48:46;;;;;;;18.30;7.50;;;;;;;41.62;28.03;99275.73;67923;1275;1016278;-59
2023/08/20 11:51:49;;;;;;;17.20;7.30;;;;;;;41.70;28.13;99272.80;67939;1275;1016518;-60
2023/08/20 11:54:51;;;;;;;18.40;7.60;;;;;;;41.85;27.72;99271.30;67951;1275;1007797;-60
2023/08/20 11:57:54;;;;;;;18.40;7.60;;;;;;;41.92;27.10;99266.49;67978;1275;1007808;-59
2023/08/20 12:00:57;;;;;;;18.40;7.60;;;;;;;41.93;26.81;99267.08;67910;1275;1007642;-56
2023/08/20 12:04:00;;;;;;;18.30;7.40;;;;;;;42.19;27.46;99268.54;68005;1275;1007958;-60
2023/08/20 12:07:03;;;;;;;18.60;7.60;;;;;;;42.02;27.09;99271.97;67952;1275;1007722;-57
2023/08/20 12:10:06;;;;;;;18.60;7.50;;;;;;;41.59;27.05;99270.24;67985;1275;1016529;-59
2023/08/20 12:13:09;;;;;;;18.90;7.90;;;;;;;41.41;27.71;99269.30;67957;1275;1016087;-60
2023/08/20 12:16:11;;;;;;;17.40;7.10;;;;;;;41.75;27.45;99268.36;67969;1275;1016502;-59
2023/08/20 12:19:14;;;;;;;17.80;7.00;;;;;;;41.93;26.90;99262.59;67981;1275;1016765;-60
2023/08/20 12:22:17;;;;;;;19.60;7.10;;;;;;;42.05;26.95;99252.16;67944;1275;1007810;-60
2023/08/20 12:25:20;;;;;;;17.20;6.70;;;;;;;42.31;26.55;99247.31;67991;1275;1007798;-60
2023/08/20 12:28:27;;;;;;;18.50;7.10;;;;;;;42.23;26.28;99245.09;67957;1275;1008930;-57
2023/08/20 12:31:30;;;;;;;16.50;6.60;;;;;;;42.45;27.18;99245.92;67979;1275;1015194;-56
2023/08/20 12:34:33;;;;;;;16.50;6.60;;;;;;;42.40;26.55;99244.11;67966;1275;1007768;-60
2023/08/20 12:37:36;;;;;;;15.50;6.20;;;;;;;42.79;26.32;99239.80;68001;1275;1007734;-57
2023/08/20 12:40:39;;;;;;;16.60;6.00;;;;;;;42.77;26.05;99242.55;67948;1275;1007849;-60
2023/08/20 12:43:42;;;;;;;17.10;6.60;;;;;;;42.50;25.17;99245.70;67962;1275;1007756;-56
2023/08/20 12:46:45;;;;;;;15.60;6.10;;;;;;;42.25;25.60;99242.35;67929;1275;1007805;-60
2023/08/20 12:49:47;;;;;;;14.60;6.00;;;;;;;42.31;25.74;99240.91;67975;1275;1007673;-60
2023/08/20 12:53:02;;;;;;;15.60;6.10;;;;;;;42.49;25.77;99236.58;68022;1275;1007771;-59
2023/08/20 12:59:29;;;;;;;15.60;6.10;;;;;;;42.25;25.35;99239.77;67937;1275;1007969;-60
2023/08/20 13:02:31;;;;;;;15.40;6.50;;;;;;;42.48;24.75;99233.71;67890;1275;1008054;-60
2023/08/20 13:05:34;;;;;;;17.20;5.70;;;;;;;42.75;25.25;99234.14;68012;1275;1007780;-57
2023/08/20 13:08:47;;;;;;;15.40;5.90;;;;;;;42.53;24.88;99235.86;67963;1275;1007646;-60
2023/08/20 13:11:55;;;;;;;16.00;5.70;;;;;;;42.52;24.71;99229.75;67930;1275;1007262;-60
2023/08/20 13:14:59;;;;;;;16.30;6.30;;;;;;;42.16;23.54;99235.98;67951;1275;1016262;-60
2023/08/20 13:18:02;;;;;;;16.00;6.20;;;;;;;41.40;24.64;99237.81;67935;1275;1016447;-60
2023/08/20 13:21:04;;;;;;;17.30;6.50;;;;;;;40.64;25.51;99234.70;67933;1275;1016497;-60
2023/08/20 13:24:07;;;;;;;17.50;6.30;;;;;;;40.67;26.37;99234.13;67903;1275;1016315;-60
2023/08/20 13:27:09;;;;;;;17.40;6.80;;;;;;;41.27;26.26;99233.40;67979;1275;1016482;-56
2023/08/20 13:30:13;;;;;;;15.60;6.30;;;;;;;41.49;26.06;99232.59;67975;1275;1017257;-58
2023/08/20 13:33:15;;;;;;;16.80;6.60;;;;;;;41.28;26.09;99234.60;67943;1275;1015662;-59
2023/08/20 13:36:18;;;;;;;16.10;6.70;;;;;;;41.52;26.06;99234.48;67991;1275;1016609;-58
2023/08/20 13:39:20;;;;;;;16.70;6.30;;;;;;;41.32;25.28;99230.07;67998;1275;1018604;-60
2023/08/20 13:42:23;;;;;;;16.60;6.80;;;;;;;41.24;25.98;99224.45;67933;1275;1018147;-60
2023/08/20 13:45:25;;;;;;;17.00;6.30;;;;;;;41.29;25.81;99224.58;67916;1275;1016304;-60
2023/08/20 13:52:00;;;;;;;17.90;6.60;;;;;;;40.88;26.02;99228.88;67961;1275;1018025;-60
2023/08/20 13:55:03;;;;;;;16.90;6.40;;;;;;;40.96;25.84;99227.13;67905;1275;1016091;-60
2023/08/20 13:58:06;;;;;;;16.30;6.60;;;;;;;40.95;25.59;99222.84;67847;1275;1016358;-60
2023/08/20 14:01:08;;;;;;;15.10;6.20;;;;;;;40.94;25.59;99224.16;67963;1275;1016234;-58
2023/08/20 14:04:11;;;;;;;16.70;6.80;;;;;;;41.22;25.70;99219.95;67953;1275;1016185;-59
2023/08/20 14:07:13;;;;;;;16.30;6.20;;;;;;;41.78;25.60;99215.30;67932;1275;1016481;-59
2023/08/20 14:10:18;;;;;;;14.70;6.20;;;;;;;41.87;25.76;99214.19;68015;1275;1016143;-60
2023/08/20 14:13:21;;;;;;;15.50;6.00;;;;;;;41.76;25.68;99220.05;67908;1275;1016437;-57